createdAt,value
2022-08-12T00:00:58.973Z,76.03
2022-08-12T00:02:03.810Z,75.84
2022-08-12T00:02:59.039Z,75.65
2022-08-12T00:03:58.917Z,75.65
2022-08-12T00:04:58.912Z,75.93
2022-08-12T00:06:04.751Z,75.36
2022-08-12T00:06:58.870Z,75.71
2022-08-12T00:07:58.891Z,76.09
2022-08-12T00:08:58.831Z,75.90
2022-08-12T00:09:58.821Z,75.42
2022-08-12T00:10:58.813Z,74.88
2022-08-12T00:11:58.798Z,74.49
2022-08-12T00:12:58.792Z,74.40
2022-08-12T00:13:58.775Z,73.85
2022-08-12T00:14:58.743Z,73.47
2022-08-12T00:15:58.730Z,73.24
2022-08-12T00:16:58.696Z,73.66
2022-08-12T00:17:58.698Z,72.99
2022-08-12T00:18:58.662Z,73.66
2022-08-12T00:19:58.654Z,74.49
2022-08-12T00:20:58.638Z,74.58
2022-08-12T00:21:58.607Z,73.91
2022-08-12T00:22:59.300Z,73.62
2022-08-12T00:23:58.577Z,74.20
2022-08-12T00:24:58.566Z,73.24
2022-08-12T00:26:22.975Z,73.72
2022-08-12T00:26:58.530Z,74.20
2022-08-12T00:27:58.529Z,73.82
2022-08-12T00:28:58.504Z,74.01
2022-08-12T00:29:58.475Z,74.68
2022-08-12T00:30:58.468Z,74.40
2022-08-12T00:31:58.454Z,74.97
2022-08-12T00:32:58.847Z,74.74
2022-08-12T00:33:58.413Z,74.68
2022-08-12T00:34:58.432Z,74.68
2022-08-12T00:35:58.389Z,75.13
2022-08-12T00:37:02.806Z,75.99
2022-08-12T00:37:58.352Z,76.86
2022-08-12T00:38:58.324Z,76.86
2022-08-12T00:39:58.344Z,76.44
2022-08-12T00:40:58.309Z,76.82
2022-08-12T00:41:58.274Z,77.50
2022-08-12T00:42:58.256Z,78.46
2022-08-12T00:43:58.242Z,77.31
2022-08-12T00:44:58.247Z,76.82
2022-08-12T00:45:58.203Z,76.92
2022-08-12T00:46:58.192Z,78.36
2022-08-12T00:47:58.185Z,76.92
2022-08-12T00:48:58.164Z,77.50
2022-08-12T00:49:58.143Z,76.92
2022-08-12T00:50:58.128Z,76.44
2022-08-12T00:51:58.141Z,76.92
2022-08-12T00:52:58.092Z,77.21
2022-08-12T00:53:58.075Z,77.88
2022-08-12T00:54:58.067Z,78.46
2022-08-12T00:55:58.053Z,77.01
2022-08-12T00:56:58.024Z,78.17
2022-08-12T00:57:58.012Z,77.50
2022-08-12T00:58:57.980Z,78.08
2022-08-12T00:59:57.988Z,78.17
2022-08-12T01:00:58.005Z,79.38
2022-08-12T01:02:02.481Z,78.42
2022-08-12T01:02:57.949Z,77.46
2022-08-12T01:03:58.617Z,78.52
2022-08-12T01:04:57.885Z,79.48
2022-08-12T01:05:57.866Z,78.23
2022-08-12T01:06:57.852Z,77.84
2022-08-12T01:07:57.863Z,76.88
2022-08-12T01:08:57.818Z,77.98
2022-08-12T01:09:57.799Z,78.81
2022-08-12T01:10:57.780Z,79.38
2022-08-12T01:11:57.765Z,79.38
2022-08-12T01:13:07.496Z,79.58
2022-08-12T01:13:57.762Z,79.92
2022-08-12T01:14:57.722Z,80.98
2022-08-12T01:15:57.699Z,81.27
2022-08-12T01:16:57.681Z,81.17
2022-08-12T01:17:57.664Z,82.57
2022-08-12T01:18:57.652Z,82.57
2022-08-12T01:19:57.623Z,82.19
2022-08-12T01:20:57.614Z,83.25
2022-08-12T01:21:57.596Z,83.49
2022-08-12T01:22:57.578Z,84.55
2022-08-12T01:23:57.555Z,85.13
2022-08-12T01:24:57.548Z,84.80
2022-08-12T01:25:57.539Z,86.33
2022-08-12T01:26:57.520Z,87.29
2022-08-12T01:27:57.486Z,86.24
2022-08-12T01:28:58.516Z,87.39
2022-08-12T01:29:57.447Z,87.92
2022-08-12T01:30:57.443Z,86.29
2022-08-12T01:31:57.422Z,87.05
2022-08-12T01:32:57.399Z,86.72
2022-08-12T01:33:57.387Z,87.39
2022-08-12T01:34:57.363Z,87.10
2022-08-12T01:35:57.823Z,87.19
2022-08-12T01:36:57.333Z,87.96
2022-08-12T01:37:57.308Z,88.02
2022-08-12T01:38:57.294Z,88.69
2022-08-12T01:40:33.740Z,88.11
2022-08-12T01:40:57.324Z,88.40
2022-08-12T01:41:57.266Z,88.40
2022-08-12T01:42:57.248Z,89.84
2022-08-12T01:43:57.203Z,90.85
2022-08-12T01:44:57.183Z,91.33
2022-08-12T01:45:57.750Z,92.19
2022-08-12T01:46:57.152Z,92.86
2022-08-12T01:47:57.123Z,94.74
2022-08-12T01:48:57.105Z,94.93
2022-08-12T01:49:57.087Z,96.08
2022-08-12T01:51:00.414Z,96.70
2022-08-12T01:52:15.438Z,98.28
2022-08-12T01:52:57.030Z,99.99
2022-08-12T01:53:57.024Z,99.99
2022-08-12T01:54:57.000Z,99.99
2022-08-12T01:55:56.991Z,99.99
2022-08-12T01:56:56.962Z,99.99
2022-08-12T01:57:58.043Z,99.99
2022-08-12T01:58:56.988Z,99.99
2022-08-12T01:59:56.911Z,99.99
2022-08-12T02:00:56.951Z,99.99
2022-08-12T02:01:56.944Z,99.99
2022-08-12T02:02:56.853Z,99.99
2022-08-12T02:03:56.830Z,99.99
2022-08-12T02:04:56.807Z,99.99
2022-08-12T02:05:56.791Z,99.99
2022-08-12T02:06:56.796Z,99.99
2022-08-12T02:07:56.759Z,99.99
2022-08-12T02:08:56.773Z,99.99
2022-08-12T02:09:56.714Z,99.99
2022-08-12T02:10:56.703Z,99.99
2022-08-12T02:11:56.678Z,99.99
2022-08-12T02:12:56.659Z,99.99
2022-08-12T02:13:56.630Z,99.99
2022-08-12T02:14:56.617Z,99.99
2022-08-12T02:15:56.611Z,99.99
2022-08-12T02:16:56.599Z,99.99
2022-08-12T02:17:56.983Z,99.99
2022-08-12T02:18:56.541Z,99.99
2022-08-12T02:19:56.521Z,99.99
2022-08-12T02:20:56.491Z,99.99
2022-08-12T02:21:56.533Z,99.99
2022-08-12T02:22:56.459Z,99.99
2022-08-12T02:23:56.446Z,99.99
2022-08-12T02:24:56.420Z,99.99
2022-08-12T02:25:56.395Z,99.99
2022-08-12T02:26:56.384Z,99.99
2022-08-12T02:27:56.360Z,99.99
2022-08-12T02:28:56.336Z,99.99
2022-08-12T02:29:56.317Z,99.99
2022-08-12T02:30:56.307Z,99.99
2022-08-12T02:31:56.272Z,99.99
2022-08-12T02:32:56.340Z,99.99
2022-08-12T02:33:56.241Z,99.99
2022-08-12T02:34:56.228Z,99.99
2022-08-12T02:35:56.197Z,99.99
2022-08-12T02:36:57.621Z,99.99
2022-08-12T02:37:56.177Z,99.99
2022-08-12T02:38:56.137Z,99.99
2022-08-12T02:39:56.168Z,99.99
2022-08-12T02:40:56.093Z,99.99
2022-08-12T02:41:56.078Z,99.99
2022-08-12T02:42:56.064Z,99.99
2022-08-12T02:43:56.040Z,99.99
2022-08-12T02:44:56.022Z,99.99
2022-08-12T02:45:55.984Z,99.99
2022-08-12T02:46:55.980Z,99.99
2022-08-12T02:47:59.632Z,99.99
2022-08-12T02:48:55.928Z,99.99
2022-08-12T02:49:55.905Z,99.99
2022-08-12T02:50:55.894Z,99.99
2022-08-12T02:51:55.867Z,99.99
2022-08-12T02:52:55.872Z,99.99
2022-08-12T02:54:03.262Z,99.99
2022-08-12T02:54:55.815Z,99.99
2022-08-12T02:55:55.785Z,99.99
2022-08-12T02:56:55.770Z,99.99
2022-08-12T02:57:55.744Z,99.99
2022-08-12T02:58:55.736Z,99.99
2022-08-12T02:59:55.706Z,99.99
2022-08-12T03:00:55.718Z,99.99
2022-08-12T03:01:55.665Z,99.99
2022-08-12T03:02:55.643Z,99.99
2022-08-12T03:03:55.623Z,99.99
2022-08-12T03:04:55.603Z,99.99
2022-08-12T03:05:55.584Z,99.99
2022-08-12T03:06:55.559Z,99.99
2022-08-12T03:07:59.825Z,99.99
2022-08-12T03:08:55.514Z,99.99
2022-08-12T03:10:04.345Z,99.99
2022-08-12T03:10:55.480Z,99.99
2022-08-12T03:11:55.461Z,99.99
2022-08-12T03:12:55.434Z,99.99
2022-08-12T03:13:55.423Z,99.99
2022-08-12T03:14:55.398Z,99.99
2022-08-12T03:15:55.403Z,99.99
2022-08-12T03:16:55.350Z,99.99
2022-08-12T03:18:24.833Z,99.99
2022-08-12T03:18:55.310Z,99.99
2022-08-12T03:20:09.179Z,99.99
2022-08-12T03:20:55.281Z,99.99
2022-08-12T03:22:09.505Z,99.99
2022-08-12T03:22:55.232Z,99.99
2022-08-12T03:23:55.208Z,99.99
2022-08-12T03:24:55.241Z,99.99
2022-08-12T03:25:55.204Z,99.99
2022-08-12T03:26:55.145Z,99.99
2022-08-12T03:27:55.133Z,99.99
2022-08-12T03:28:55.101Z,99.99
2022-08-12T03:29:55.086Z,99.99
2022-08-12T03:30:56.843Z,99.99
2022-08-12T03:31:55.045Z,99.99
2022-08-12T03:32:55.034Z,99.99
2022-08-12T03:34:01.267Z,99.99
2022-08-12T03:34:54.986Z,99.99
2022-08-12T03:35:54.960Z,99.99
2022-08-12T03:36:55.332Z,99.99
2022-08-12T03:37:54.917Z,99.99
2022-08-12T03:38:54.898Z,99.99
2022-08-12T03:39:54.920Z,99.99
2022-08-12T03:40:54.870Z,99.99
2022-08-12T03:41:54.834Z,99.99
2022-08-12T03:42:54.821Z,99.99
2022-08-12T03:43:54.798Z,99.99
2022-08-12T03:44:54.772Z,99.99
2022-08-12T03:45:54.756Z,99.99
2022-08-12T03:46:54.734Z,99.99
2022-08-12T03:47:54.722Z,99.99
2022-08-12T03:48:54.732Z,99.99
2022-08-12T03:49:54.742Z,99.99
2022-08-12T03:50:54.669Z,99.99
2022-08-12T03:51:54.640Z,99.99
2022-08-12T03:52:54.603Z,99.99
2022-08-12T03:53:54.580Z,99.99
2022-08-12T03:54:54.567Z,99.99
2022-08-12T03:55:54.540Z,99.99
2022-08-12T03:56:54.524Z,99.99
2022-08-12T03:57:54.496Z,99.99
2022-08-12T03:58:54.495Z,99.99
2022-08-12T03:59:54.462Z,99.99
2022-08-12T04:00:54.471Z,99.99
2022-08-12T04:01:54.419Z,99.99
2022-08-12T04:02:54.396Z,99.99
2022-08-12T04:03:54.372Z,99.99
2022-08-12T04:04:54.358Z,99.99
2022-08-12T04:05:56.291Z,99.99
2022-08-12T04:06:54.352Z,99.99
2022-08-12T04:07:58.409Z,99.99
2022-08-12T04:08:54.269Z,99.99
2022-08-12T04:09:54.268Z,99.99
2022-08-12T04:10:54.233Z,99.99
2022-08-12T04:11:54.208Z,99.99
2022-08-12T04:12:54.190Z,99.99
2022-08-12T04:13:54.199Z,99.99
2022-08-12T04:14:54.142Z,99.99
2022-08-12T04:15:54.124Z,99.99
2022-08-12T04:16:54.116Z,99.99
2022-08-12T04:18:06.506Z,99.99
2022-08-12T04:18:54.053Z,99.99
2022-08-12T04:19:54.075Z,99.99
2022-08-12T04:20:54.042Z,99.99
2022-08-12T04:22:02.861Z,99.99
2022-08-12T04:22:53.969Z,99.99
2022-08-12T04:23:53.955Z,99.99
2022-08-12T04:24:53.928Z,99.99
2022-08-12T04:25:53.907Z,99.99
2022-08-12T04:26:53.922Z,99.99
2022-08-12T04:27:53.873Z,99.99
2022-08-12T04:28:53.852Z,99.99
2022-08-12T04:30:29.477Z,99.99
2022-08-12T04:30:53.801Z,99.99
2022-08-12T04:31:53.786Z,99.99
2022-08-12T04:32:53.983Z,99.99
2022-08-12T04:33:53.739Z,99.99
2022-08-12T04:34:53.709Z,99.99
2022-08-12T04:35:53.697Z,99.99
2022-08-12T04:36:53.674Z,99.99
2022-08-12T04:37:59.313Z,99.99
2022-08-12T04:38:57.673Z,99.99
2022-08-12T04:39:53.697Z,99.99
2022-08-12T04:40:53.585Z,99.99
2022-08-12T04:41:58.669Z,99.99
2022-08-12T04:42:53.539Z,99.99
2022-08-12T04:44:00.596Z,99.99
2022-08-12T04:44:53.502Z,99.99
2022-08-12T04:45:53.475Z,99.99
2022-08-12T04:46:53.449Z,99.99
2022-08-12T04:47:53.433Z,99.99
2022-08-12T04:48:53.408Z,99.99
2022-08-12T04:49:53.394Z,99.99
2022-08-12T04:50:53.371Z,99.99
2022-08-12T04:51:53.441Z,99.99
2022-08-12T04:52:53.316Z,99.99
2022-08-12T04:53:53.303Z,99.99
2022-08-12T04:54:53.289Z,99.99
2022-08-12T04:55:53.256Z,99.99
2022-08-12T04:57:04.317Z,99.99
2022-08-12T04:57:53.218Z,99.99
2022-08-12T04:58:53.225Z,99.99
2022-08-12T04:59:53.171Z,99.99
2022-08-12T05:00:53.154Z,99.99
2022-08-12T05:01:53.181Z,99.99
2022-08-12T05:02:53.164Z,99.99
2022-08-12T05:03:53.083Z,99.99
2022-08-12T05:04:53.072Z,99.99
2022-08-12T05:05:53.060Z,99.99
2022-08-12T05:06:53.030Z,99.99
2022-08-12T05:07:54.206Z,99.99
2022-08-12T05:08:52.985Z,99.99
2022-08-12T05:09:59.780Z,99.99
2022-08-12T05:10:52.935Z,99.99
2022-08-12T05:11:54.337Z,99.99
2022-08-12T05:12:52.913Z,99.99
2022-08-12T05:13:52.873Z,99.99
2022-08-12T05:14:52.870Z,99.99
2022-08-12T05:16:02.547Z,99.99
2022-08-12T05:16:52.834Z,99.99
2022-08-12T05:17:52.794Z,99.99
2022-08-12T05:18:52.768Z,99.99
2022-08-12T05:19:52.746Z,99.99
2022-08-12T05:20:52.730Z,99.99
2022-08-12T05:21:52.720Z,99.99
2022-08-12T05:22:57.219Z,99.99
2022-08-12T05:23:52.670Z,99.99
2022-08-12T05:24:52.652Z,99.99
2022-08-12T05:25:52.616Z,99.99
2022-08-12T05:26:52.594Z,99.99
2022-08-12T05:27:58.162Z,99.99
2022-08-12T05:28:52.556Z,99.99
2022-08-12T05:30:08.314Z,99.99
2022-08-12T05:30:52.510Z,99.99
2022-08-12T05:31:52.530Z,99.99
2022-08-12T05:32:53.704Z,99.99
2022-08-12T05:33:52.446Z,99.99
2022-08-12T05:34:52.423Z,99.99
2022-08-12T05:35:52.400Z,99.99
2022-08-12T05:36:52.385Z,99.99
2022-08-12T05:37:52.361Z,99.99
2022-08-12T05:38:52.360Z,99.99
2022-08-12T05:39:52.348Z,99.99
2022-08-12T05:40:52.290Z,99.99
2022-08-12T05:41:52.278Z,99.99
2022-08-12T05:42:52.259Z,99.99
2022-08-12T05:43:52.234Z,99.99
2022-08-12T05:44:52.207Z,99.99
2022-08-12T05:45:52.193Z,99.99
2022-08-12T05:46:52.172Z,99.99
2022-08-12T05:47:53.495Z,99.99
2022-08-12T05:48:52.170Z,99.99
2022-08-12T05:49:52.112Z,99.99
2022-08-12T05:50:52.090Z,99.99
2022-08-12T05:51:52.062Z,99.99
2022-08-12T05:52:52.894Z,99.99
2022-08-12T05:53:52.026Z,99.99
2022-08-12T05:54:57.593Z,99.99
2022-08-12T05:55:51.991Z,99.99
2022-08-12T05:56:51.964Z,99.99
2022-08-12T05:57:51.939Z,99.99
2022-08-12T05:58:51.932Z,99.99
2022-08-12T05:59:51.904Z,99.99
2022-08-12T06:00:51.874Z,99.99
2022-08-12T06:02:09.667Z,99.99
2022-08-12T06:02:51.884Z,99.99
2022-08-12T06:03:51.861Z,99.99
2022-08-12T06:04:51.802Z,99.99
2022-08-12T06:05:54.783Z,99.99
2022-08-12T06:06:51.759Z,99.99
2022-08-12T06:08:02.242Z,99.99
2022-08-12T06:08:51.746Z,99.99
2022-08-12T06:09:51.707Z,99.99
2022-08-12T06:10:51.684Z,99.99
2022-08-12T06:12:04.229Z,99.99
2022-08-12T06:12:51.659Z,99.99
2022-08-12T06:13:53.751Z,99.99
2022-08-12T06:14:51.606Z,99.99
2022-08-12T06:15:51.603Z,99.99
2022-08-12T06:16:51.559Z,99.99
2022-08-12T06:17:51.548Z,99.99
2022-08-12T06:18:51.519Z,99.99
2022-08-12T06:20:25.683Z,99.99
2022-08-12T06:20:51.843Z,99.99
2022-08-12T06:21:51.468Z,99.99
2022-08-12T06:22:54.493Z,99.99
2022-08-12T06:23:51.480Z,99.99
2022-08-12T06:24:51.403Z,99.99
2022-08-12T06:25:51.392Z,99.99
2022-08-12T06:26:51.380Z,99.99
2022-08-12T06:28:07.523Z,99.99
2022-08-12T06:28:51.337Z,99.99
2022-08-12T06:30:09.343Z,99.99
2022-08-12T06:31:08.554Z,99.99
2022-08-12T06:31:51.291Z,99.99
2022-08-12T06:33:11.449Z,99.99
2022-08-12T06:33:59.739Z,99.99
2022-08-12T06:35:27.287Z,99.99
2022-08-12T06:35:51.440Z,99.99
2022-08-12T06:36:51.186Z,99.99
2022-08-12T06:37:51.614Z,99.99
2022-08-12T06:38:51.151Z,99.99
2022-08-12T06:39:51.184Z,99.99
2022-08-12T06:40:51.110Z,99.99
2022-08-12T06:42:31.114Z,99.99
2022-08-12T06:42:51.093Z,99.99
2022-08-12T06:44:05.124Z,99.99
2022-08-12T06:44:51.036Z,99.99
2022-08-12T06:45:51.026Z,99.99
2022-08-12T06:46:50.997Z,99.99
2022-08-12T06:47:50.989Z,99.99
2022-08-12T06:48:50.962Z,99.99
2022-08-12T06:49:50.952Z,99.99
2022-08-12T06:50:50.937Z,99.99
2022-08-12T06:51:54.491Z,98.58
2022-08-12T06:52:50.894Z,93.77
2022-08-12T06:53:50.885Z,89.00
2022-08-12T06:54:50.856Z,88.08
2022-08-12T06:55:58.351Z,90.24
2022-08-12T06:57:57.228Z,85.81
2022-08-12T06:58:05.262Z,86.14
2022-08-12T06:58:50.792Z,82.18
2022-08-12T06:59:50.780Z,82.13
2022-08-12T07:00:50.839Z,85.50
2022-08-12T07:01:51.662Z,82.32
2022-08-12T07:02:50.726Z,80.00
2022-08-12T07:03:50.708Z,84.54
2022-08-12T07:04:50.698Z,82.32
2022-08-12T07:05:51.005Z,82.03
2022-08-12T07:06:50.664Z,81.65
2022-08-12T07:07:50.651Z,81.49
2022-08-12T07:08:50.628Z,78.21
2022-08-12T07:10:06.653Z,78.89
2022-08-12T07:10:50.604Z,79.56
2022-08-12T07:11:50.844Z,77.28
2022-08-12T07:12:50.569Z,77.48
2022-08-12T07:14:12.557Z,78.83
2022-08-12T07:14:50.530Z,77.48
2022-08-12T07:15:50.531Z,77.09
2022-08-12T07:16:50.501Z,76.64
2022-08-12T07:17:50.486Z,75.87
2022-08-12T07:18:50.480Z,74.94
2022-08-12T07:19:50.478Z,74.65
2022-08-12T07:20:52.776Z,73.68
2022-08-12T07:21:59.789Z,75.04
2022-08-12T07:22:50.417Z,74.30
2022-08-12T07:23:50.424Z,73.63
2022-08-12T07:24:50.387Z,72.21
2022-08-12T07:25:52.275Z,71.14
2022-08-12T07:26:50.383Z,70.92
2022-08-12T07:27:50.360Z,71.31
2022-08-12T07:28:50.330Z,71.25
2022-08-12T07:30:02.787Z,71.28
2022-08-12T07:30:50.305Z,69.28
2022-08-12T07:31:50.296Z,68.15
2022-08-12T07:32:50.277Z,65.56
2022-08-12T07:33:50.268Z,66.11
2022-08-12T07:34:50.248Z,66.53
2022-08-12T07:35:50.236Z,63.03
2022-08-12T07:36:50.234Z,63.32
2022-08-12T07:37:50.258Z,61.64
2022-08-12T07:38:50.203Z,62.41
2022-08-12T07:40:00.033Z,63.10
2022-08-12T07:40:50.187Z,62.64
2022-08-12T07:41:50.161Z,62.35
2022-08-12T07:42:50.146Z,60.47
2022-08-12T07:43:50.147Z,60.31
2022-08-12T07:44:51.593Z,61.80
2022-08-12T07:45:50.122Z,60.50
2022-08-12T07:46:50.103Z,62.35
2022-08-12T07:47:50.089Z,60.34
2022-08-12T07:48:50.087Z,61.63
2022-08-12T07:50:04.991Z,60.49
2022-08-12T07:50:50.071Z,59.03
2022-08-12T07:51:50.041Z,57.86
2022-08-12T07:52:50.022Z,58.35
2022-08-12T07:54:00.378Z,60.23
2022-08-12T07:54:50.010Z,59.84
2022-08-12T07:55:49.998Z,58.77
2022-08-12T07:56:49.995Z,57.37
2022-08-12T07:57:49.972Z,58.64
2022-08-12T07:58:49.963Z,58.71
2022-08-12T07:59:52.830Z,59.39
2022-08-12T08:00:49.942Z,60.36
2022-08-12T08:01:50.024Z,58.29
2022-08-12T08:02:49.928Z,59.17
2022-08-12T08:03:49.952Z,60.34
2022-08-12T08:04:49.902Z,62.19
2022-08-12T08:05:49.896Z,59.95
2022-08-12T08:06:49.884Z,60.05
2022-08-12T08:07:49.873Z,60.53
2022-08-12T08:08:49.854Z,59.46
2022-08-12T08:09:49.856Z,62.12
2022-08-12T08:10:49.828Z,62.90
2022-08-12T08:11:49.826Z,61.44
2022-08-12T08:12:49.811Z,60.08
2022-08-12T08:13:49.832Z,58.35
2022-08-12T08:14:50.415Z,62.38
2022-08-12T08:16:02.844Z,61.50
2022-08-12T08:16:49.762Z,58.18
2022-08-12T08:17:49.772Z,59.12
2022-08-12T08:18:49.746Z,57.85
2022-08-12T08:20:03.522Z,56.00
2022-08-12T08:20:49.729Z,57.49
2022-08-12T08:21:49.737Z,57.03
2022-08-12T08:22:49.706Z,54.71
2022-08-12T08:23:55.850Z,55.37
2022-08-12T08:24:49.684Z,54.49
2022-08-12T08:25:49.674Z,54.56
2022-08-12T08:26:49.668Z,56.74
2022-08-12T08:27:49.675Z,56.57
2022-08-12T08:28:49.656Z,54.74
2022-08-12T08:29:49.640Z,53.76
2022-08-12T08:30:51.202Z,56.13
2022-08-12T08:31:49.629Z,54.40
2022-08-12T08:32:49.610Z,53.33
2022-08-12T08:34:09.687Z,54.38
2022-08-12T08:34:54.584Z,54.77
2022-08-12T08:35:49.582Z,57.60
2022-08-12T08:36:49.579Z,56.62
2022-08-12T08:37:49.567Z,55.35
2022-08-12T08:38:53.235Z,53.47
2022-08-12T08:39:49.595Z,52.49
2022-08-12T08:40:49.541Z,54.38
2022-08-12T08:42:16.294Z,53.91
2022-08-12T08:42:51.504Z,50.78
2022-08-12T08:43:49.530Z,51.86
2022-08-12T08:44:49.715Z,52.56
2022-08-12T08:45:49.489Z,50.63
2022-08-12T08:46:49.485Z,52.08
2022-08-12T08:47:49.483Z,51.00
2022-08-12T08:48:49.467Z,52.86
2022-08-12T08:49:49.453Z,50.88
2022-08-12T08:51:04.241Z,51.34
2022-08-12T08:51:49.449Z,52.20
2022-08-12T08:52:49.491Z,51.51
2022-08-12T08:53:52.716Z,50.71
2022-08-12T08:54:49.410Z,52.66
2022-08-12T08:56:04.726Z,51.12
2022-08-12T08:56:49.400Z,52.91
2022-08-12T08:57:49.387Z,53.10
2022-08-12T08:58:49.371Z,51.10
2022-08-12T08:59:51.839Z,50.32
2022-08-12T09:00:49.545Z,53.08
2022-08-12T09:01:49.420Z,50.42
2022-08-12T09:02:59.331Z,50.02
2022-08-12T09:05:09.237Z,52.40
2022-08-12T09:05:11.116Z,50.81
2022-08-12T09:06:02.045Z,50.90
2022-08-12T09:06:53.727Z,49.09
2022-08-12T09:07:59.398Z,51.90
2022-08-12T09:08:49.283Z,49.53
2022-08-12T09:10:03.683Z,48.63
2022-08-12T09:10:49.432Z,52.88
2022-08-12T09:12:07.645Z,50.51
2022-08-12T09:12:54.619Z,50.24
2022-08-12T09:14:12.075Z,50.34
2022-08-12T09:15:55.835Z,50.78
2022-08-12T09:16:50.275Z,49.60
2022-08-12T09:17:49.204Z,50.12
2022-08-12T09:18:52.420Z,50.51
2022-08-12T09:19:53.639Z,48.72
2022-08-12T09:20:50.688Z,50.98
2022-08-12T09:21:54.139Z,49.80
2022-08-12T09:22:49.671Z,48.43
2022-08-12T09:24:00.312Z,48.90
2022-08-12T09:24:49.143Z,48.02
2022-08-12T09:25:49.133Z,49.29
2022-08-12T09:26:49.130Z,50.59
2022-08-12T09:27:57.993Z,49.51
2022-08-12T09:28:49.269Z,48.90
2022-08-12T09:30:11.926Z,50.88
2022-08-12T09:30:49.088Z,49.19
2022-08-12T09:32:07.163Z,52.83
2022-08-12T09:33:04.082Z,47.92
2022-08-12T09:34:28.894Z,47.14
2022-08-12T09:34:50.844Z,49.65
2022-08-12T09:36:04.620Z,50.83
2022-08-12T09:37:00.082Z,51.34
2022-08-12T09:37:57.867Z,48.99
2022-08-12T09:38:59.181Z,52.47
2022-08-12T09:40:04.999Z,50.39
2022-08-12T09:40:57.562Z,51.07
2022-08-12T09:42:09.951Z,52.47
2022-08-12T09:43:11.249Z,50.81
2022-08-12T09:43:53.904Z,48.04
2022-08-12T09:44:49.063Z,50.88
2022-08-12T09:46:19.806Z,51.56
2022-08-12T09:46:49.005Z,49.53
2022-08-12T09:47:50.042Z,49.75
2022-08-12T09:48:56.243Z,46.98
2022-08-12T09:49:48.915Z,46.37
2022-08-12T09:50:50.554Z,49.60
2022-08-12T09:51:48.923Z,47.24
2022-08-12T09:52:49.717Z,49.38
2022-08-12T09:54:08.893Z,47.65
2022-08-12T09:54:50.303Z,48.94
2022-08-12T09:56:07.015Z,47.60
2022-08-12T09:57:02.663Z,47.99
2022-08-12T09:58:44.983Z,46.91
2022-08-12T09:59:00.169Z,51.29
2022-08-12T10:00:15.572Z,49.09
2022-08-12T10:00:52.069Z,48.19
2022-08-12T10:02:41.856Z,49.97
2022-08-12T10:02:53.416Z,46.77
2022-08-12T10:04:04.254Z,49.60
2022-08-12T10:04:51.615Z,47.45
2022-08-12T10:06:19.810Z,48.46
2022-08-12T10:06:54.966Z,44.56
2022-08-12T10:07:48.759Z,43.21
2022-08-12T10:08:52.655Z,46.03
2022-08-12T10:09:57.042Z,47.13
2022-08-12T10:10:48.978Z,49.11
2022-08-12T10:12:10.405Z,48.82
2022-08-12T10:13:10.294Z,47.25
2022-08-12T10:13:48.725Z,46.25
2022-08-12T10:14:50.636Z,48.19
2022-08-12T10:16:01.741Z,47.50
2022-08-12T10:16:48.700Z,47.65
2022-08-12T10:17:56.710Z,46.98
2022-08-12T10:18:51.194Z,46.20
2022-08-12T10:19:51.745Z,48.30
2022-08-12T10:20:48.660Z,44.46
2022-08-12T10:21:48.647Z,44.83
2022-08-12T10:22:49.450Z,46.28
2022-08-12T10:23:51.591Z,46.97
2022-08-12T10:24:53.080Z,50.61
2022-08-12T10:26:18.578Z,48.09
2022-08-12T10:26:48.610Z,48.19
2022-08-12T10:28:03.712Z,48.87
2022-08-12T10:29:01.952Z,48.38
2022-08-12T10:30:38.641Z,43.05
2022-08-12T10:30:59.001Z,45.52
2022-08-12T10:32:21.538Z,47.60
2022-08-12T10:32:56.231Z,45.32
2022-08-12T10:34:05.163Z,45.81
2022-08-12T10:34:53.659Z,47.77
2022-08-12T10:35:48.564Z,46.50
2022-08-12T10:36:48.565Z,46.91
2022-08-12T10:38:34.106Z,45.54
2022-08-12T10:38:48.553Z,47.99
2022-08-12T10:40:05.629Z,47.52
2022-08-12T10:40:48.561Z,45.64
2022-08-12T10:41:58.522Z,43.54
2022-08-12T10:42:48.499Z,45.30
2022-08-12T10:43:55.542Z,46.67
2022-08-12T10:44:48.512Z,46.86
2022-08-12T10:45:48.483Z,46.69
2022-08-12T10:46:49.823Z,46.98
2022-08-12T10:48:07.670Z,49.75
2022-08-12T10:48:58.523Z,44.85
2022-08-12T10:50:02.571Z,48.11
2022-08-12T10:50:58.515Z,47.74
2022-08-12T10:52:04.671Z,45.44
2022-08-12T10:52:48.689Z,46.11
2022-08-12T10:53:48.438Z,47.69
2022-08-12T10:54:49.425Z,46.72
2022-08-12T10:55:56.102Z,46.01
2022-08-12T10:56:48.419Z,45.72
2022-08-12T10:58:13.689Z,47.28
2022-08-12T10:58:48.427Z,47.77
2022-08-12T11:00:30.910Z,49.24
2022-08-12T11:01:25.967Z,46.50
2022-08-12T11:04:16.919Z,45.20
2022-08-12T11:04:22.340Z,48.26
2022-08-12T11:04:31.874Z,46.86
2022-08-12T11:04:49.878Z,46.08
2022-08-12T11:07:05.724Z,47.67
2022-08-12T11:07:08.364Z,47.18
2022-08-12T11:08:33.971Z,47.06
2022-08-12T11:08:48.503Z,47.77
2022-08-12T11:10:00.001Z,46.11
2022-08-12T11:10:48.366Z,44.76
2022-08-12T11:12:35.331Z,46.94
2022-08-12T11:12:58.713Z,46.13
2022-08-12T11:13:48.990Z,46.42
2022-08-12T11:14:51.190Z,45.32
2022-08-12T11:16:19.591Z,47.45
2022-08-12T11:17:33.751Z,46.28
2022-08-12T11:17:53.938Z,49.04
2022-08-12T11:18:48.336Z,46.98
2022-08-12T11:19:48.329Z,47.79
2022-08-12T11:20:48.831Z,43.66
2022-08-12T11:21:58.256Z,44.54
2022-08-12T11:22:58.144Z,44.15
2022-08-12T11:23:53.683Z,46.18
2022-08-12T11:24:51.294Z,48.16
2022-08-12T11:25:57.309Z,44.46
2022-08-12T11:26:48.334Z,46.42
2022-08-12T11:27:51.376Z,45.73
2022-08-12T11:28:59.134Z,46.91
2022-08-12T11:30:05.369Z,47.40
2022-08-12T11:30:48.293Z,45.34
2022-08-12T11:31:56.269Z,44.27
2022-08-12T11:32:48.281Z,45.42
2022-08-12T11:34:04.138Z,44.76
2022-08-12T11:34:53.781Z,43.48
2022-08-12T11:35:48.284Z,42.78
2022-08-12T11:36:53.435Z,44.54
2022-08-12T11:37:58.824Z,44.13
2022-08-12T11:38:50.872Z,44.13
2022-08-12T11:40:48.231Z,44.30
2022-08-12T11:41:48.247Z,44.20
2022-08-12T11:42:48.528Z,44.79
2022-08-12T11:43:50.622Z,46.18
2022-08-12T11:44:48.225Z,44.42
2022-08-12T11:45:53.171Z,44.52
2022-08-12T11:46:52.443Z,44.23
2022-08-12T11:47:49.273Z,48.46
2022-08-12T11:48:51.518Z,48.09
2022-08-12T11:49:49.888Z,49.55
2022-08-12T11:50:48.214Z,49.58
2022-08-12T11:51:57.632Z,46.08
2022-08-12T11:52:55.805Z,45.78
2022-08-12T11:53:59.440Z,45.59
2022-08-12T11:54:51.065Z,47.55
2022-08-12T11:55:48.210Z,44.29
2022-08-12T11:56:59.009Z,43.88
2022-08-12T11:58:19.762Z,44.46
2022-08-12T12:02:01.792Z,44.27
2022-08-12T12:02:02.645Z,43.09
2022-08-12T12:02:48.256Z,42.70
2022-08-12T12:03:48.203Z,42.50
2022-08-12T12:04:52.487Z,43.29
2022-08-12T12:05:48.200Z,42.90
2022-08-12T12:06:52.910Z,47.03
2022-08-12T12:08:38.016Z,45.29
2022-08-12T12:08:51.524Z,42.99
2022-08-12T12:09:53.499Z,43.12
2022-08-12T12:10:48.202Z,46.17
2022-08-12T12:11:49.350Z,43.33
2022-08-12T12:12:50.167Z,43.72
2022-08-12T12:14:07.444Z,43.90
2022-08-12T12:14:54.659Z,44.66
2022-08-12T12:15:48.225Z,43.77
2022-08-12T12:16:50.861Z,41.52
2022-08-12T12:17:48.202Z,41.72
2022-08-12T12:18:48.213Z,41.03
2022-08-12T12:19:48.201Z,41.99
2022-08-12T12:20:48.371Z,46.20
2022-08-12T12:21:49.529Z,42.88
2022-08-12T12:22:48.210Z,44.56
2022-08-12T12:23:48.194Z,47.03
2022-08-12T12:24:48.198Z,44.48
2022-08-12T12:26:06.852Z,47.16
2022-08-12T12:26:48.193Z,42.45
2022-08-12T12:28:04.972Z,43.62
2022-08-12T12:28:54.473Z,43.04
2022-08-12T12:30:19.353Z,43.23
2022-08-12T12:30:54.664Z,42.74
2022-08-12T12:32:09.771Z,49.43
2022-08-12T12:32:53.304Z,43.05
2022-08-12T12:33:58.246Z,42.45
2022-08-12T12:35:14.333Z,43.02
2022-08-12T12:36:19.832Z,42.72
2022-08-12T12:36:48.197Z,43.90
2022-08-12T12:38:03.292Z,43.82
2022-08-12T12:38:48.192Z,45.51
2022-08-12T12:39:55.378Z,40.90
2022-08-12T12:40:50.252Z,41.78
2022-08-12T12:42:47.562Z,41.68
2022-08-12T12:42:56.840Z,40.88
2022-08-12T12:44:03.795Z,40.98
2022-08-12T12:44:51.041Z,42.05
2022-08-12T12:45:48.194Z,42.94
2022-08-12T12:46:48.199Z,43.82
2022-08-12T12:47:48.198Z,41.27
2022-08-12T12:48:48.196Z,40.09
2022-08-12T12:49:48.198Z,40.98
2022-08-12T12:50:51.580Z,42.45
2022-08-12T12:52:18.009Z,43.72
2022-08-12T12:52:48.207Z,41.76
2022-08-12T12:54:08.575Z,44.12
2022-08-12T12:54:48.196Z,42.41
2022-08-12T12:55:48.196Z,42.29
2022-08-12T12:56:48.195Z,46.11